createdAt,value
2022-08-17T00:02:26.740Z,50.26
2022-08-17T00:05:31.998Z,50.31
2022-08-17T00:08:37.800Z,50.31
2022-08-17T00:11:42.175Z,50.05
2022-08-17T00:15:06.080Z,50.15
2022-08-17T00:19:03.842Z,50.23
2022-08-17T00:22:30.809Z,50.35
2022-08-17T00:25:00.745Z,50.39
2022-08-17T00:28:03.761Z,50.36
2022-08-17T00:31:08.287Z,50.50
2022-08-17T00:34:10.357Z,50.45
2022-08-17T00:37:12.435Z,50.38
2022-08-17T00:40:15.438Z,50.61
2022-08-17T00:43:35.194Z,50.59
2022-08-17T00:46:40.867Z,50.76
2022-08-17T00:49:43.106Z,50.79
2022-08-17T00:52:55.922Z,50.74
2022-08-17T00:56:01.423Z,50.82
2022-08-17T00:59:05.199Z,50.75
2022-08-17T01:02:09.691Z,50.56
2022-08-17T01:05:23.397Z,50.85
2022-08-17T01:08:29.461Z,50.51
2022-08-17T01:11:33.053Z,50.63
2022-08-17T01:14:36.380Z,49.71
2022-08-17T01:17:39.401Z,49.17
2022-08-17T01:20:48.905Z,49.42
2022-08-17T01:23:51.283Z,49.37
2022-08-17T01:26:53.423Z,49.27
2022-08-17T01:30:02.752Z,49.18
2022-08-17T01:33:05.770Z,49.10
2022-08-17T01:36:08.415Z,49.10
2022-08-17T01:39:40.709Z,48.83
2022-08-17T01:42:51.886Z,48.49
2022-08-17T01:46:02.529Z,48.41
2022-08-17T01:49:10.992Z,48.41
2022-08-17T01:52:13.824Z,48.34
2022-08-17T01:55:23.417Z,48.31
2022-08-17T01:58:28.134Z,48.24
2022-08-17T02:01:32.501Z,47.96
2022-08-17T02:04:35.150Z,48.16
2022-08-17T02:07:59.325Z,48.37
2022-08-17T02:10:59.335Z,48.60
2022-08-17T02:14:05.094Z,49.28
2022-08-17T02:17:07.237Z,49.58
2022-08-17T02:20:10.701Z,50.04
2022-08-17T02:23:13.452Z,50.26
2022-08-17T02:26:25.848Z,50.49
2022-08-17T02:29:29.096Z,50.72
2022-08-17T02:32:31.135Z,50.83
2022-08-17T02:35:33.202Z,50.91
2022-08-17T02:38:36.578Z,50.93
2022-08-17T02:41:39.800Z,51.01
2022-08-17T02:44:42.277Z,50.89
2022-08-17T02:47:45.213Z,50.97
2022-08-17T02:50:47.826Z,51.18
2022-08-17T02:53:49.959Z,50.92
2022-08-17T02:56:52.079Z,51.10
2022-08-17T02:59:54.207Z,51.54
2022-08-17T03:02:57.799Z,51.11
2022-08-17T03:05:59.870Z,51.19
2022-08-17T03:09:01.926Z,51.13
2022-08-17T03:12:10.599Z,51.29
2022-08-17T03:15:18.747Z,51.63
2022-08-17T03:18:24.672Z,51.85
2022-08-17T03:21:27.331Z,51.98
2022-08-17T03:24:29.400Z,52.21
2022-08-17T03:27:31.784Z,52.59
2022-08-17T03:30:34.686Z,52.73
2022-08-17T03:33:36.766Z,52.84
2022-08-17T03:36:39.248Z,53.09
2022-08-17T03:39:41.637Z,53.27
2022-08-17T03:42:44.428Z,53.62
2022-08-17T03:46:05.866Z,53.62
2022-08-17T03:49:32.080Z,53.22
2022-08-17T03:52:52.984Z,53.01
2022-08-17T03:56:17.013Z,52.54
2022-08-17T03:59:22.675Z,52.09
2022-08-17T04:02:29.119Z,51.52
2022-08-17T04:05:31.191Z,51.14
2022-08-17T04:08:36.622Z,50.81
2022-08-17T04:11:39.370Z,50.63
2022-08-17T04:14:52.929Z,50.56
2022-08-17T04:17:56.706Z,50.43
2022-08-17T04:20:58.870Z,50.60
2022-08-17T04:24:01.310Z,50.58
2022-08-17T04:27:03.443Z,50.56
2022-08-17T04:30:07.444Z,50.82
2022-08-17T04:33:12.718Z,51.04
2022-08-17T04:36:16.548Z,50.98
2022-08-17T04:39:18.615Z,51.08
2022-08-17T04:42:20.677Z,51.24
2022-08-17T04:45:22.791Z,51.18
2022-08-17T04:48:46.796Z,51.14
2022-08-17T04:51:56.156Z,52.04
2022-08-17T04:55:02.574Z,51.73
2022-08-17T04:58:05.436Z,52.63
2022-08-17T05:01:07.713Z,52.95
2022-08-17T05:04:33.293Z,53.70
2022-08-17T05:07:37.388Z,54.29
2022-08-17T05:10:39.568Z,54.44
2022-08-17T05:13:50.224Z,54.49
2022-08-17T05:16:52.652Z,54.96
2022-08-17T05:19:54.941Z,55.45
2022-08-17T05:23:04.426Z,55.37
2022-08-17T05:26:07.121Z,56.40
2022-08-17T05:29:12.356Z,56.08
2022-08-17T05:32:38.000Z,56.65
2022-08-17T05:35:39.570Z,56.43
2022-08-17T05:38:42.115Z,55.97
2022-08-17T05:41:47.879Z,55.71
2022-08-17T05:44:50.001Z,56.03
2022-08-17T05:47:52.028Z,55.45
2022-08-17T05:51:31.290Z,55.33
2022-08-17T05:54:46.342Z,59.00
2022-08-17T05:58:19.239Z,58.80
2022-08-17T06:01:47.657Z,59.22
2022-08-17T06:05:07.651Z,58.63
2022-08-17T06:08:40.615Z,59.48
2022-08-17T06:11:53.525Z,59.71
2022-08-17T06:15:15.826Z,64.12
2022-08-17T06:18:20.325Z,61.50
2022-08-17T06:21:32.094Z,61.53
2022-08-17T06:24:47.651Z,60.39
2022-08-17T06:28:00.607Z,61.60
2022-08-17T06:31:14.936Z,62.30
2022-08-17T06:34:17.305Z,62.34
2022-08-17T06:37:53.211Z,62.98
2022-08-17T06:41:36.498Z,62.35
2022-08-17T06:44:51.283Z,64.76
2022-08-17T06:48:04.305Z,63.69
2022-08-17T06:51:15.843Z,61.94
2022-08-17T06:54:39.525Z,64.21
2022-08-17T06:57:51.999Z,65.43
2022-08-17T07:00:59.089Z,66.72
2022-08-17T07:04:21.426Z,67.00
2022-08-17T07:07:42.309Z,65.17
2022-08-17T07:10:50.175Z,65.79
2022-08-17T07:14:31.460Z,66.17
2022-08-17T07:17:47.300Z,63.66
2022-08-17T07:20:55.907Z,64.50
2022-08-17T07:24:11.035Z,62.93
2022-08-17T07:27:45.354Z,64.53
2022-08-17T07:30:53.101Z,64.66
2022-08-17T07:34:01.812Z,66.48
2022-08-17T07:37:05.294Z,63.97
2022-08-17T07:40:21.270Z,64.19
2022-08-17T07:43:26.478Z,61.61
2022-08-17T07:47:05.164Z,60.44
2022-08-17T07:50:27.129Z,59.90
2022-08-17T07:53:31.905Z,59.21
2022-08-17T07:56:38.590Z,59.09
2022-08-17T07:59:43.479Z,59.05
2022-08-17T08:02:57.691Z,58.78
2022-08-17T08:06:02.156Z,58.72
2022-08-17T08:09:04.300Z,58.92
2022-08-17T08:12:32.697Z,59.17
2022-08-17T08:15:45.161Z,59.42
2022-08-17T08:18:58.973Z,59.74
2022-08-17T08:22:18.463Z,59.80
2022-08-17T08:25:53.250Z,60.55
2022-08-17T08:29:18.341Z,60.57
2022-08-17T08:32:46.434Z,61.25
2022-08-17T08:36:14.422Z,61.73
2022-08-17T08:39:51.367Z,61.26
2022-08-17T08:43:06.545Z,60.22
2022-08-17T08:46:26.618Z,60.28
2022-08-17T08:50:03.951Z,60.42
2022-08-17T08:53:15.393Z,60.28
2022-08-17T08:56:36.106Z,60.39
2022-08-17T09:00:00.022Z,60.43
2022-08-17T09:03:36.707Z,61.28
2022-08-17T09:07:08.812Z,63.39
2022-08-17T09:10:29.349Z,62.89
2022-08-17T09:13:41.522Z,63.90
2022-08-17T09:17:06.125Z,63.27
2022-08-17T09:20:27.519Z,62.41
2022-08-17T09:23:49.547Z,63.13
2022-08-17T09:27:09.381Z,62.85
2022-08-17T09:30:12.128Z,64.14
2022-08-17T09:33:18.771Z,65.28
2022-08-17T09:36:31.043Z,64.72
2022-08-17T09:40:19.377Z,64.90
2022-08-17T09:43:43.848Z,65.08
2022-08-17T09:47:05.385Z,64.68
2022-08-17T09:51:04.881Z,64.68
2022-08-17T09:53:50.028Z,64.39
2022-08-17T09:57:40.517Z,64.21
2022-08-17T10:00:56.307Z,63.92
2022-08-17T10:04:29.617Z,64.31
2022-08-17T10:07:41.305Z,64.44
2022-08-17T10:11:51.562Z,64.34
2022-08-17T10:14:59.309Z,65.43
2022-08-17T10:18:31.783Z,65.39
2022-08-17T10:22:00.984Z,66.77
2022-08-17T10:25:37.556Z,66.65
2022-08-17T10:28:50.665Z,65.58
2022-08-17T10:32:01.564Z,65.25
2022-08-17T10:35:33.881Z,64.58
2022-08-17T10:38:41.745Z,65.20
2022-08-17T10:41:49.392Z,64.40
2022-08-17T10:45:05.255Z,64.86
2022-08-17T10:48:07.635Z,63.34
2022-08-17T10:51:36.350Z,61.63
2022-08-17T10:54:47.373Z,62.23
2022-08-17T10:57:50.463Z,63.25
2022-08-17T11:00:57.178Z,64.88
2022-08-17T11:04:12.287Z,64.35
2022-08-17T11:07:44.700Z,65.59
2022-08-17T11:11:08.105Z,65.24
2022-08-17T11:14:23.941Z,65.77
2022-08-17T11:17:44.615Z,65.99
2022-08-17T11:20:52.615Z,64.05
2022-08-17T11:23:59.431Z,62.81
2022-08-17T11:27:07.637Z,61.54
2022-08-17T11:30:41.448Z,61.41
2022-08-17T11:33:52.399Z,59.82
2022-08-17T11:37:25.263Z,59.22
2022-08-17T11:40:46.453Z,60.17
2022-08-17T11:44:10.460Z,60.60
2022-08-17T11:48:08.927Z,61.41
2022-08-17T11:51:33.685Z,59.80
2022-08-17T11:54:48.766Z,60.51
2022-08-17T11:58:01.430Z,62.25
2022-08-17T12:01:22.868Z,62.87
2022-08-17T12:04:29.150Z,63.01
2022-08-17T12:07:34.465Z,64.28
2022-08-17T12:10:49.458Z,64.52
2022-08-17T12:13:56.117Z,64.40
2022-08-17T12:17:05.450Z,65.91
2022-08-17T12:20:13.877Z,66.84
2022-08-17T12:23:22.686Z,67.46
2022-08-17T12:26:33.744Z,66.46
2022-08-17T12:29:39.095Z,65.54
2022-08-17T12:32:46.002Z,65.88
2022-08-17T12:35:48.247Z,65.59
2022-08-17T12:39:13.978Z,63.69
2022-08-17T12:42:29.854Z,63.56
2022-08-17T12:45:39.423Z,61.83
2022-08-17T12:48:54.946Z,61.94
2022-08-17T12:52:25.017Z,61.50
2022-08-17T12:55:27.787Z,59.95
2022-08-17T12:58:49.076Z,62.98
2022-08-17T13:01:51.667Z,58.68
2022-08-17T13:04:56.801Z,57.16
2022-08-17T13:08:00.423Z,57.91
2022-08-17T13:11:05.872Z,58.49
2022-08-17T13:14:11.367Z,57.97
2022-08-17T13:17:24.854Z,57.57
2022-08-17T13:20:27.238Z,56.63
2022-08-17T13:23:31.407Z,55.89
2022-08-17T13:26:34.593Z,56.96
2022-08-17T13:29:45.527Z,56.95
2022-08-17T13:32:57.021Z,57.09
2022-08-17T13:36:07.599Z,56.55
2022-08-17T13:39:21.257Z,56.30
2022-08-17T13:42:52.111Z,55.48
2022-08-17T13:46:13.958Z,54.98
2022-08-17T13:49:16.124Z,55.52
2022-08-17T13:52:39.434Z,55.65
2022-08-17T13:55:59.345Z,54.77
2022-08-17T13:59:05.957Z,55.18
2022-08-17T14:02:09.793Z,54.54
2022-08-17T14:05:11.999Z,54.74
2022-08-17T14:08:16.846Z,55.10
2022-08-17T14:11:19.902Z,55.23
2022-08-17T14:14:23.301Z,55.52
2022-08-17T14:17:28.826Z,54.83
2022-08-17T14:20:31.171Z,53.82
2022-08-17T14:23:35.149Z,53.97
2022-08-17T14:26:37.375Z,54.38
2022-08-17T14:29:41.281Z,54.36
2022-08-17T14:32:45.087Z,53.10
2022-08-17T14:35:47.238Z,53.69
2022-08-17T14:38:49.422Z,54.13
2022-08-17T14:41:53.003Z,54.26
2022-08-17T14:44:55.996Z,54.35
2022-08-17T14:47:58.101Z,54.11
2022-08-17T14:51:00.233Z,54.42
2022-08-17T14:54:02.897Z,54.04
2022-08-17T14:57:32.956Z,54.00
2022-08-17T15:00:28.536Z,54.04
2022-08-17T15:03:30.770Z,54.19
2022-08-17T15:06:33.121Z,54.06
2022-08-17T15:09:35.752Z,54.35
2022-08-17T15:12:40.050Z,53.01
2022-08-17T15:15:42.265Z,52.06
2022-08-17T15:18:44.379Z,52.80
2022-08-17T15:21:47.000Z,53.30
2022-08-17T15:24:49.175Z,54.09
2022-08-17T15:27:51.780Z,54.77
2022-08-17T15:30:54.577Z,55.82
2022-08-17T15:33:57.144Z,55.37
2022-08-17T15:36:59.632Z,55.09
2022-08-17T15:40:01.960Z,53.88
2022-08-17T15:43:11.521Z,53.46
2022-08-17T15:46:17.251Z,53.34
2022-08-17T15:49:19.652Z,53.44
2022-08-17T15:52:25.527Z,52.02
2022-08-17T15:55:30.466Z,52.85
2022-08-17T15:58:34.666Z,53.11
2022-08-17T16:03:01.401Z,53.36
2022-08-17T16:05:13.144Z,53.39
2022-08-17T16:08:20.651Z,53.36
2022-08-17T16:11:24.003Z,53.17
2022-08-17T16:14:32.447Z,52.54
2022-08-17T16:17:39.867Z,52.91
2022-08-17T16:20:43.352Z,52.92
2022-08-17T16:23:46.821Z,53.01
2022-08-17T16:26:48.964Z,53.02
2022-08-17T16:29:52.129Z,52.82
2022-08-17T16:33:00.204Z,53.38
2022-08-17T16:36:02.441Z,55.10
2022-08-17T16:39:04.817Z,53.96
2022-08-17T16:42:25.550Z,54.13
2022-08-17T16:45:36.293Z,54.12
2022-08-17T16:48:38.535Z,53.61
2022-08-17T16:51:41.498Z,54.12
2022-08-17T16:54:45.425Z,54.36
2022-08-17T16:57:50.160Z,53.45
2022-08-17T17:00:53.617Z,53.38
2022-08-17T17:04:01.950Z,54.50
2022-08-17T17:07:33.768Z,54.90
2022-08-17T17:10:49.534Z,55.58
2022-08-17T17:13:58.441Z,55.32
2022-08-17T17:17:24.564Z,56.94
2022-08-17T17:20:35.398Z,56.48
2022-08-17T17:23:53.866Z,55.98
2022-08-17T17:27:18.692Z,57.72
2022-08-17T17:30:51.701Z,58.66
2022-08-17T17:33:57.858Z,58.71
2022-08-17T17:37:05.816Z,57.80
2022-08-17T17:40:16.134Z,57.43
2022-08-17T17:43:38.257Z,56.59
2022-08-17T17:46:46.844Z,56.77
2022-08-17T17:49:49.523Z,56.69
2022-08-17T17:52:59.224Z,56.81
2022-08-17T17:56:18.741Z,56.90
2022-08-17T17:59:50.218Z,57.29
2022-08-17T18:03:14.521Z,56.70
2022-08-17T18:06:30.806Z,58.21
2022-08-17T18:10:02.683Z,58.61
2022-08-17T18:13:37.358Z,58.70
2022-08-17T18:16:42.634Z,58.32
2022-08-17T18:19:45.501Z,58.93
2022-08-17T18:22:47.701Z,59.25
2022-08-17T18:25:52.680Z,59.25
2022-08-17T18:28:55.106Z,59.06
2022-08-17T18:32:23.534Z,59.28
2022-08-17T18:35:32.606Z,59.68
2022-08-17T18:38:41.994Z,60.06
2022-08-17T18:41:47.351Z,60.12
2022-08-17T18:44:54.797Z,59.94
2022-08-17T18:47:57.448Z,57.86
2022-08-17T18:51:41.439Z,57.42
2022-08-17T18:55:05.426Z,56.46
2022-08-17T18:58:20.538Z,56.09
2022-08-17T19:01:42.060Z,55.79
2022-08-17T19:05:13.696Z,55.28
2022-08-17T19:08:18.668Z,54.63
2022-08-17T19:11:31.498Z,54.63
2022-08-17T19:14:34.093Z,54.75
2022-08-17T19:17:51.007Z,54.57
2022-08-17T19:21:15.047Z,54.46
2022-08-17T19:24:21.927Z,54.38
2022-08-17T19:27:57.212Z,54.22
2022-08-17T19:31:08.148Z,54.15
2022-08-17T19:34:13.258Z,53.94
2022-08-17T19:37:18.235Z,53.78
2022-08-17T19:44:16.324Z,53.61
2022-08-17T19:47:57.842Z,53.31
2022-08-17T19:51:04.632Z,53.04
2022-08-17T19:54:44.043Z,53.02
2022-08-17T19:58:13.293Z,52.84
2022-08-17T20:01:46.782Z,52.36
2022-08-17T20:04:51.877Z,52.23
2022-08-17T20:08:10.440Z,52.18
2022-08-17T20:11:27.957Z,52.06
2022-08-17T20:14:58.461Z,52.17
2022-08-17T20:18:09.933Z,51.93
2022-08-17T20:21:41.381Z,51.62
2022-08-17T20:24:54.194Z,51.60
2022-08-17T20:28:15.352Z,51.37
2022-08-17T20:31:55.704Z,51.35
2022-08-17T20:35:20.669Z,50.79
2022-08-17T20:38:53.580Z,50.86
2022-08-17T20:42:22.077Z,50.47
2022-08-17T20:45:26.266Z,50.11
2022-08-17T20:48:38.511Z,49.97
2022-08-17T20:51:41.328Z,49.42
2022-08-17T20:54:54.544Z,49.47
2022-08-17T20:57:56.779Z,49.38
2022-08-17T21:00:59.074Z,49.19
2022-08-17T21:04:05.641Z,49.22
2022-08-17T21:07:33.011Z,49.23
2022-08-17T21:10:47.037Z,49.65
2022-08-17T21:14:10.956Z,49.67
2022-08-17T21:17:33.568Z,49.74
2022-08-17T21:20:59.800Z,49.94
2022-08-17T21:24:26.424Z,50.12
2022-08-17T21:27:59.128Z,50.32
2022-08-17T21:31:08.540Z,50.35
2022-08-17T21:34:23.207Z,50.55
2022-08-17T21:37:30.199Z,50.65
2022-08-17T21:40:34.532Z,51.16
2022-08-17T21:43:44.356Z,51.15
2022-08-17T21:46:49.399Z,51.40
2022-08-17T21:49:53.427Z,51.55
2022-08-17T21:52:55.961Z,51.72
2022-08-17T21:55:58.282Z,51.79
2022-08-17T21:59:07.432Z,52.00
2022-08-17T22:02:37.627Z,52.27
2022-08-17T22:05:40.527Z,52.37
2022-08-17T22:08:43.142Z,52.18
2022-08-17T22:12:02.367Z,52.13
2022-08-17T22:15:09.514Z,52.35
2022-08-17T22:18:21.822Z,52.52
2022-08-17T22:21:25.277Z,52.78
2022-08-17T22:24:27.601Z,52.84
2022-08-17T22:28:06.505Z,53.10
2022-08-17T22:31:14.498Z,53.47
2022-08-17T22:34:17.358Z,53.75
2022-08-17T22:37:27.731Z,53.65
2022-08-17T22:40:33.264Z,53.69
2022-08-17T22:43:38.476Z,53.78
2022-08-17T22:46:55.239Z,54.07
2022-08-17T22:50:02.883Z,54.33
2022-08-17T22:53:35.226Z,54.59
2022-08-17T22:56:56.869Z,55.07
2022-08-17T22:59:59.325Z,54.84
2022-08-17T23:03:12.479Z,54.81
2022-08-17T23:06:14.617Z,54.62
2022-08-17T23:09:16.684Z,55.33
2022-08-17T23:12:26.287Z,55.31
2022-08-17T23:15:33.200Z,55.35
2022-08-17T23:18:35.686Z,55.55
2022-08-17T23:21:38.152Z,55.91
2022-08-17T23:24:45.108Z,55.81
2022-08-17T23:27:50.673Z,55.76
2022-08-17T23:30:52.910Z,55.78
2022-08-17T23:33:55.509Z,55.71
2022-08-17T23:36:57.762Z,55.81
2022-08-17T23:40:00.211Z,55.98
2022-08-17T23:43:09.832Z,56.00
2022-08-17T23:46:27.033Z,56.52
2022-08-17T23:49:29.565Z,56.41
2022-08-17T23:52:36.877Z,56.24
2022-08-17T23:55:39.048Z,56.10
2022-08-17T23:58:43.049Z,55.84
